• Join FlightAware (Why Join?)
  • Login
  • US Flag 
04:27PM EST


 

Airport Tracker/Info


-or-


 

Live Flight TrackerFlight Track Log ✈ EJA370 ✈ 07-May-2013 ✈ KTYS - KMDW

Flight Track Log - Related Links

Times and Time Zones

All times are in EDT time to prevent confusion due to time zone crossing. See the EJA370 flight status page for this flight to view local times or setup timezone preferences in your user account.

Time Position Orientation Groundspeed Altitude Reporting Facility
EDT Latitude Longitude Course Direction KTS MPH feet Rate Location/Type
01:53PM 35.7725 -84.1028 336° Northwest 230 265 34,000  Level Atlanta Center
01:54PM 35.8331 -84.1617 322° Northwest 221 254 10,100 -4,740 Descending Atlanta Center
01:56PM 35.9889 -84.2536 334° Northwest 310 357 20,000 4,140 Climbing Indianapolis Center
01:57PM 36.0714 -84.3044 334° Northwest 326 375 22,600 2,700 Climbing Indianapolis Center
01:58PM 36.3688 -84.3641 336° Northwest  Level FlightAware Approximate
01:58PM 36.1631 -84.3611 333° Northwest 362 417 25,700  Level Indianapolis Center
01:59PM 36.2764 -84.4303 334° Northwest 377 434 28,700 2,700 Climbing Indianapolis Center
02:00PM 36.3742 -84.4892 334° Northwest 389 448 31,300 2,400 Climbing Indianapolis Center
02:01PM 36.4692 -84.5464 334° Northwest 385 443 33,700 1,260 Climbing Indianapolis Center
02:02PM 36.5681 -84.6092 333° Northwest 396 456 34,000 120 Climbing Indianapolis Center
02:03PM 36.6661 -84.6689 334° Northwest 395 455 34,000  Level Indianapolis Center
02:04PM 36.7619 -84.7278 334° Northwest 386 444 34,000  Level Indianapolis Center
02:05PM 36.8583 -84.7881 333° Northwest 387 445 34,000  Level Indianapolis Center
02:06PM 36.9758 -84.8614 334° Northwest 393 452 34,000  Level Indianapolis Center
02:07PM 37.0603 -84.9136 334° Northwest 387 445 34,000  Level Indianapolis Center
02:08PM 37.1744 -84.9850 334° Northwest 391 450 34,000  Level Indianapolis Center
02:09PM 37.2731 -85.0481 333° Northwest 395 455 34,000  Level Indianapolis Center
02:10PM 37.3722 -85.1097 334° Northwest 396 456 34,000  Level Indianapolis Center
02:11PM 37.4717 -85.1731 333° Northwest 398 458 34,000  Level Indianapolis Center
02:13PM 37.5750 -85.2128 343° North 389 448 34,000  Level Indianapolis Center
02:14PM 37.6836 -85.2414 348° North 393 452 34,000  Level Indianapolis Center
02:15PM 37.7906 -85.2714 348° North 393 452 34,000  Level Indianapolis Center
02:16PM 37.9003 -85.3006 348° North 397 457 34,000  Level Indianapolis Center
02:17PM 38.0064 -85.3303 348° North 395 455 34,000  Level Indianapolis Center
02:18PM 38.1356 -85.3664 348° North 393 452 34,000  Level Indianapolis Center
02:19PM 38.2447 -85.3967 348° North 398 458 34,000  Level Indianapolis Center
02:20PM 38.3519 -85.4264 348° North 396 456 34,000  Level Indianapolis Center
02:21PM 38.4600 -85.4572 347° North 397 457 34,000  Level Indianapolis Center
02:22PM 38.5692 -85.4881 348° North 401 461 34,000 -120 Level Indianapolis Center
02:23PM 38.6775 -85.5181 348° North 397 457 33,800 -540 Descending Indianapolis Center
02:24PM 38.7844 -85.5483 348° North 394 453 33,000 -540 Descending Indianapolis Center
02:25PM 38.9119 -85.5842 348° North 391 450 32,800 -660 Descending Indianapolis Center
02:26PM 39.0272 -85.6175 347° North 415 478 31,700 -1,080 Descending Indianapolis Center
02:27PM 39.1464 -85.6531 347° North 433 498 30,600 -1,200 Descending Indianapolis Center
02:28PM 39.2661 -85.6864 348° North 439 505 29,300 -1,260 Descending Indianapolis Center
02:29PM 39.3867 -85.7211 347° North 442 509 28,000 -660 Descending Indianapolis Center
02:30PM 39.5075 -85.7572 347° North 445 512 28,000  Level Indianapolis Center
02:31PM 39.6242 -85.7914 347° North 436 502 28,000 -360 Level Indianapolis Center
02:32PM 39.7614 -85.8303 348° North 429 494 27,300 -1,020 Descending Indianapolis Center
02:33PM 39.8767 -85.8644 347° North 423 487 25,900 -1,320 Descending Indianapolis Center
02:34PM 39.9900 -85.8981 347° North 416 479 24,600 -960 Descending Indianapolis Center
02:35PM 40.1014 -85.9306 347° North 409 471 24,000 -300 Descending Indianapolis Center
02:36PM 40.2069 -85.9522 351° North 392 451 24,000 -360 Level Indianapolis Center
02:37PM 40.3164 -85.9658 355° North 387 445 23,300 -540 Descending Indianapolis Center
02:38PM 40.4258 -85.9861 352° North 392 451 23,000 -720 Descending Indianapolis Center
02:39PM 40.5364 -86.0072 352° North 395 455 21,900 -1,260 Descending Indianapolis Center
02:40PM 40.6653 -86.0292 353° North 395 455 20,500 -1,260 Descending Indianapolis Center
02:41PM 40.7750 -86.0481 353° North 394 453 19,300 -1,200 Descending Indianapolis Center
02:42PM 40.8839 -86.0661 353° North 391 450 18,100 -1,140 Descending Indianapolis Center
02:43PM 40.9933 -86.0808 354° North 391 450 17,000 -840 Descending Indianapolis Center
02:44PM 41.0817 -86.1803 320° Northwest 398 458 16,400 -1,140 Descending Indianapolis Center
02:46PM 41.1403 -86.3064 302° West 375 432 14,400 -1,500 Descending Chicago Center
02:47PM 41.1922 -86.4031 306° West 318 366 13,100 -1,320 Descending Chicago Center
02:48PM 41.2508 -86.5164 305° West 310 357 11,700 -1,440 Descending Chicago Center
02:49PM 41.2986 -86.6061 305° West 300 345 10,200 -1,680 Descending Chicago Center
02:50PM 41.3414 -86.6956 303° West 290 334 8,300 -1,860 Descending Chicago Center
02:51PM 41.3647 -86.8056 286° West 285 328 6,400 -1,140 Descending Chicago Center
02:52PM 41.3842 -86.9067 284° West 283 326 6,000 -240 Descending Chicago Center
02:53PM 41.4047 -87.0075 285° West 283 326 6,000  Level Chicago Center
02:54PM 41.4236 -87.1100 284° West 286 329 6,000  Level Chicago Center
02:54PM 41.4333 -87.1667 283° West 282 325 6,000 -300 Level Chicago TRACON
02:56PM 41.4500 -87.2833 281° West 279 321 5,600 -780 Descending Chicago TRACON
02:57PM 41.4839 -87.4261 288° West 277 319 4,000 -660 Descending Chicago Center
02:58PM 41.5019 -87.5264 284° West 278 320 4,000  Level Chicago Center
02:59PM 41.5203 -87.6281 284° West 281 323 4,000 -60 Level Chicago Center
03:00PM 41.5386 -87.7267 284° West 280 322 3,900 -480 Descending Chicago Center
03:01PM 41.5642 -87.8294 288° West 263 303 3,100 -480 Descending Chicago Center
03:02PM 41.5975 -87.8928 305° West 230 265 3,000 -60 Descending Chicago Center
03:03PM 41.6414 -87.9092 344° North 204 235 3,000  Level Chicago Center
03:04PM 41.6850 -87.8808 26° Northeast 192 221 3,000 -480 Level Chicago Center
03:05PM 41.7267 -87.8247 45° Northeast 183 211 2,100 -720 Descending Chicago Center
03:06PM 41.7597 -87.7892 39° Northeast 167 192 1,500 -480 Descending Chicago Center
03:07PM 41.7769 -87.7681 42° Northeast 134 154 1,100 -420 Descending Chicago Center
03:09PM 41.7833 -87.7500 334° Northwest  Level FlightAware Approximate